createdAt,value
2019-05-06T00:02:10.702Z,73.88
2019-05-06T00:04:40.353Z,74.04
2019-05-06T00:07:10.184Z,74.45
2019-05-06T00:09:44.790Z,74.73
2019-05-06T00:12:18.019Z,74.35
2019-05-06T00:14:47.562Z,74.10
2019-05-06T00:17:16.977Z,74.47
2019-05-06T00:19:46.643Z,74.32
2019-05-06T00:22:16.284Z,74.89
2019-05-06T00:25:11.389Z,74.52
2019-05-06T00:27:58.669Z,74.41
2019-05-06T00:30:28.443Z,74.41
2019-05-06T00:32:58.085Z,74.67
2019-05-06T00:35:27.587Z,74.88
2019-05-06T00:37:57.217Z,74.94
2019-05-06T00:40:33.640Z,76.40
2019-05-06T00:43:05.537Z,75.29
2019-05-06T00:45:35.563Z,75.20
2019-05-06T00:48:05.088Z,75.31
2019-05-06T00:50:34.945Z,75.26
2019-05-06T00:53:06.350Z,75.60
2019-05-06T00:55:35.983Z,75.56
2019-05-06T00:58:05.316Z,75.67
2019-05-06T01:00:38.368Z,75.78
2019-05-06T01:03:08.542Z,76.77
2019-05-06T01:05:38.132Z,77.12
2019-05-06T01:08:07.704Z,76.22
2019-05-06T01:10:37.307Z,76.94
2019-05-06T01:13:16.827Z,77.64
2019-05-06T01:15:46.698Z,76.89
2019-05-06T01:18:16.033Z,77.92
2019-05-06T01:20:45.801Z,77.51
2019-05-06T01:23:15.544Z,78.22
2019-05-06T01:25:46.975Z,77.51
2019-05-06T01:28:48.424Z,77.70
2019-05-06T01:32:13.961Z,78.11
2019-05-06T01:35:24.528Z,78.71
2019-05-06T01:46:54.264Z,79.70
2019-05-06T01:57:33.778Z,79.80
2019-05-06T03:34:52.671Z,79.62
2019-05-06T03:37:07.868Z,80.01
2019-05-06T03:39:49.453Z,80.83
2019-05-06T03:42:47.355Z,80.21
2019-05-06T03:46:06.199Z,80.61
2019-05-06T03:48:40.154Z,80.07
2019-05-06T03:51:09.592Z,80.15
2019-05-06T03:53:43.416Z,79.64
2019-05-06T03:56:26.313Z,79.60
2019-05-06T03:59:23.667Z,80.03
2019-05-06T04:02:01.323Z,79.78
2019-05-06T04:04:33.207Z,79.82
2019-05-06T04:07:08.954Z,80.34
2019-05-06T04:09:58.993Z,79.64
2019-05-06T04:12:28.061Z,80.07
2019-05-06T04:14:58.357Z,79.56
2019-05-06T04:17:54.053Z,79.90
2019-05-06T04:20:34.430Z,79.32
2019-05-06T04:23:23.379Z,79.51
2019-05-06T04:25:58.980Z,79.38
2019-05-06T04:28:34.077Z,79.28
2019-05-06T04:31:03.712Z,78.96
2019-05-06T04:33:34.066Z,79.31
2019-05-06T04:36:06.287Z,78.91
2019-05-06T04:38:35.931Z,78.65
2019-05-06T04:41:05.522Z,79.17
2019-05-06T04:43:35.026Z,78.56
2019-05-06T04:46:04.766Z,78.71
2019-05-06T04:48:34.470Z,78.33
2019-05-06T04:51:06.960Z,78.82
2019-05-06T04:54:13.489Z,78.46
2019-05-06T04:56:43.771Z,78.56
2019-05-06T04:59:14.000Z,78.65
2019-05-06T05:01:45.543Z,77.98
2019-05-06T05:04:28.228Z,78.68
2019-05-06T05:06:47.424Z,78.41
2019-05-06T05:09:43.505Z,78.04
2019-05-06T05:12:22.694Z,78.23
2019-05-06T05:14:58.266Z,78.18
2019-05-06T05:17:42.055Z,78.02
2019-05-06T05:20:12.562Z,77.71
2019-05-06T05:22:44.571Z,77.21
2019-05-06T05:25:25.082Z,77.35
2019-05-06T05:27:46.767Z,77.41
2019-05-06T05:30:16.376Z,76.58
2019-05-06T05:33:00.068Z,76.51
2019-05-06T05:35:32.177Z,75.96
2019-05-06T05:38:03.044Z,76.13
2019-05-06T05:40:33.377Z,77.18
2019-05-06T05:43:22.812Z,77.61
2019-05-06T05:52:54.453Z,79.46
2019-05-06T06:05:59.054Z,78.76
2019-05-06T06:08:28.461Z,78.19
2019-05-06T06:11:06.289Z,77.48
2019-05-06T06:13:36.354Z,77.58
2019-05-06T06:16:42.284Z,77.15
2019-05-06T06:19:32.875Z,76.22
2019-05-06T06:22:05.382Z,75.86
2019-05-06T06:24:38.060Z,74.96
2019-05-06T06:27:07.776Z,74.37
2019-05-06T06:29:37.416Z,73.93
2019-05-06T06:32:14.393Z,75.42
2019-05-06T06:35:14.396Z,75.65
2019-05-06T06:38:06.607Z,75.25
2019-05-06T06:40:38.452Z,74.91
2019-05-06T06:43:16.206Z,75.05
2019-05-06T06:45:45.958Z,75.15
2019-05-06T06:48:15.209Z,75.08
2019-05-06T06:50:45.796Z,76.08
2019-05-06T06:53:14.986Z,74.57
2019-05-06T06:55:54.552Z,75.21
2019-05-06T06:58:33.710Z,73.25
2019-05-06T07:01:33.007Z,72.45
2019-05-06T07:04:14.031Z,72.45
2019-05-06T07:06:53.143Z,70.94
2019-05-06T07:09:29.698Z,70.51
2019-05-06T07:12:13.090Z,70.25
2019-05-06T07:18:02.741Z,68.95
2019-05-06T07:20:42.838Z,68.62
2019-05-06T07:23:25.453Z,69.80
2019-05-06T07:25:56.001Z,70.46
2019-05-06T07:28:26.046Z,70.45
2019-05-06T07:30:56.247Z,69.58
2019-05-06T07:33:26.160Z,70.05
2019-05-06T07:35:55.665Z,70.59
2019-05-06T07:38:25.178Z,70.75
2019-05-06T07:41:04.525Z,71.17
2019-05-06T07:43:42.086Z,71.90
2019-05-06T07:46:33.760Z,72.56
2019-05-06T07:49:03.459Z,73.03
2019-05-06T07:51:33.262Z,73.78
2019-05-06T07:54:02.902Z,74.40
2019-05-06T07:56:32.414Z,74.65
2019-05-06T07:59:12.556Z,74.54
2019-05-06T08:01:44.009Z,75.10
2019-05-06T08:04:13.475Z,76.00
2019-05-06T08:06:42.811Z,76.30
2019-05-06T08:09:12.927Z,77.46
2019-05-06T08:11:43.335Z,77.40
2019-05-06T08:14:13.211Z,77.52
2019-05-06T08:17:02.446Z,77.17
2019-05-06T08:19:33.588Z,76.87
2019-05-06T08:22:06.061Z,77.29
2019-05-06T08:24:35.650Z,75.71
2019-05-06T08:27:05.359Z,76.08
2019-05-06T08:29:34.507Z,74.37
2019-05-06T08:32:04.281Z,74.32
2019-05-06T08:34:34.174Z,72.08
2019-05-06T08:37:13.172Z,72.03
2019-05-06T08:39:45.939Z,70.63
2019-05-06T08:42:14.250Z,70.17
2019-05-06T08:44:43.298Z,70.81
2019-05-06T08:47:13.360Z,70.76
2019-05-06T08:50:07.190Z,71.52
2019-05-06T08:52:54.138Z,71.40
2019-05-06T08:55:32.669Z,71.83
2019-05-06T08:58:17.149Z,72.20
2019-05-06T09:01:12.416Z,72.33
2019-05-06T09:03:42.256Z,72.73
2019-05-06T09:06:24.511Z,73.23
2019-05-06T09:08:43.191Z,73.23
2019-05-06T09:11:12.597Z,73.29
2019-05-06T09:13:42.898Z,72.94
2019-05-06T09:16:13.079Z,72.87
2019-05-06T09:18:55.813Z,73.34
2019-05-06T09:22:13.961Z,73.77
2019-05-06T09:24:45.606Z,74.50
2019-05-06T09:27:42.196Z,74.36
2019-05-06T09:30:17.633Z,74.42
2019-05-06T09:32:53.595Z,74.89
2019-05-06T09:40:06.703Z,76.21
2019-05-06T09:43:43.390Z,75.05
2019-05-06T14:35:32.520Z,60.72
2019-05-06T14:38:03.413Z,61.43
2019-05-06T14:40:46.011Z,60.86
2019-05-06T14:43:16.601Z,59.78
2019-05-06T14:45:46.371Z,61.24
2019-05-06T14:48:36.152Z,62.88
2019-05-06T14:51:06.349Z,62.93
2019-05-06T14:53:44.485Z,61.72
2019-05-06T14:56:24.806Z,62.13
2019-05-06T14:59:12.529Z,62.76
2019-05-06T15:01:46.186Z,60.69
2019-05-06T15:04:43.347Z,61.60
2019-05-06T15:07:13.551Z,62.08
2019-05-06T15:09:55.741Z,63.01
2019-05-06T15:12:16.048Z,62.13
2019-05-06T15:14:45.739Z,62.35
2019-05-06T15:17:15.199Z,61.58
2019-05-06T15:19:45.233Z,62.71
2019-05-06T15:22:14.841Z,63.15
2019-05-06T15:24:44.545Z,62.42
2019-05-06T15:27:14.018Z,62.18
2019-05-06T15:29:49.007Z,62.72
2019-05-06T15:32:35.643Z,61.04
2019-05-06T15:35:44.159Z,61.09
2019-05-06T15:38:18.726Z,62.52
2019-05-06T15:40:48.627Z,62.66
2019-05-06T15:43:17.972Z,62.37
2019-05-06T15:45:47.602Z,61.46
2019-05-06T15:48:17.910Z,62.39
2019-05-06T15:50:47.785Z,61.42
2019-05-06T15:53:18.330Z,62.26
2019-05-06T15:55:53.482Z,60.96
2019-05-06T15:58:36.807Z,60.46
2019-05-06T16:01:06.619Z,62.36
2019-05-06T16:03:36.073Z,61.95
2019-05-06T16:06:06.990Z,60.83
2019-05-06T16:08:38.738Z,59.56
2019-05-06T16:11:12.582Z,62.22
2019-05-06T16:17:12.369Z,62.10
2019-05-06T16:19:54.789Z,60.67
2019-05-06T16:22:33.836Z,58.23
2019-05-06T16:25:17.484Z,60.71
2019-05-06T16:27:54.848Z,60.59
2019-05-06T16:35:45.372Z,59.36
2019-05-06T16:58:32.797Z,60.97
2019-05-06T17:19:29.096Z,61.53
2019-05-06T17:21:08.397Z,60.28
2019-05-06T17:23:47.679Z,61.59
2019-05-06T17:26:22.543Z,62.11
2019-05-06T17:29:10.756Z,61.96
2019-05-06T17:32:38.325Z,61.55
2019-05-06T17:35:13.454Z,61.69
2019-05-06T17:38:06.308Z,61.74
2019-05-06T17:40:36.710Z,62.10
2019-05-06T17:43:06.069Z,61.82
2019-05-06T17:45:59.371Z,61.93
2019-05-06T17:48:42.561Z,62.24
2019-05-06T17:51:14.125Z,61.99
2019-05-06T17:53:46.493Z,62.28
2019-05-06T17:56:16.880Z,61.73
2019-05-06T17:58:48.802Z,62.55
2019-05-06T18:01:23.235Z,62.40
2019-05-06T18:03:52.760Z,62.13
2019-05-06T18:06:25.049Z,62.30
2019-05-06T18:08:56.980Z,62.23
2019-05-06T18:11:27.655Z,62.43
2019-05-06T18:13:59.839Z,61.67
2019-05-06T18:16:30.296Z,62.42
2019-05-06T18:18:59.825Z,62.60
2019-05-06T18:21:29.434Z,62.38
2019-05-06T18:27:28.920Z,62.84
2019-05-06T18:30:11.380Z,63.18
2019-05-06T18:32:29.173Z,62.87
2019-05-06T18:34:58.389Z,63.22
2019-05-06T18:37:27.876Z,63.53
2019-05-06T18:39:57.332Z,63.28
2019-05-06T18:42:27.605Z,63.18
2019-05-06T18:44:59.060Z,63.54
2019-05-06T18:47:29.816Z,63.82
2019-05-06T18:50:02.156Z,63.81
2019-05-06T18:52:32.260Z,64.12
2019-05-06T18:55:05.060Z,64.47
2019-05-06T19:01:08.506Z,65.05
2019-05-06T19:03:48.058Z,65.11
2019-05-06T19:09:44.270Z,65.45
2019-05-06T19:12:29.045Z,65.34
2019-05-06T19:14:46.748Z,65.48
2019-05-06T19:17:17.197Z,65.82
2019-05-06T19:19:59.210Z,66.08
2019-05-06T19:22:28.807Z,66.15
2019-05-06T19:24:58.600Z,66.08
2019-05-06T19:27:27.769Z,66.28
2019-05-06T19:29:57.340Z,66.08
2019-05-06T19:32:26.851Z,66.45
2019-05-06T19:34:56.202Z,66.49
2019-05-06T19:37:25.915Z,66.35
2019-05-06T19:39:54.949Z,66.47
2019-05-06T19:42:24.507Z,66.53
2019-05-06T19:44:53.695Z,66.94
2019-05-06T19:47:23.036Z,66.85
2019-05-06T19:49:53.335Z,66.93
2019-05-06T19:52:25.137Z,67.17
2019-05-06T19:54:54.846Z,67.08
2019-05-06T19:57:26.424Z,67.21
2019-05-06T19:59:56.341Z,67.31
2019-05-06T20:02:26.404Z,67.66
2019-05-06T20:05:03.608Z,67.58
2019-05-06T20:07:46.422Z,67.75
2019-05-06T20:10:42.023Z,67.64
2019-05-06T20:13:13.928Z,67.72
2019-05-06T20:15:47.922Z,67.98
2019-05-06T20:18:22.139Z,67.78
2019-05-06T20:20:59.088Z,68.02
2019-05-06T20:27:13.307Z,67.78
2019-05-06T20:29:46.192Z,68.40
2019-05-06T20:32:22.657Z,68.28
2019-05-06T20:38:13.402Z,68.15
2019-05-06T20:40:43.650Z,68.66
2019-05-06T20:43:20.068Z,68.65
2019-05-06T20:45:47.484Z,68.64
2019-05-06T20:48:17.256Z,69.10
2019-05-06T20:50:46.590Z,69.24
2019-05-06T20:56:53.444Z,69.37
2019-05-06T21:03:04.196Z,69.73
2019-05-06T21:06:48.401Z,70.09
2019-05-06T21:16:38.145Z,70.99
2019-05-06T21:19:33.392Z,71.63
2019-05-06T21:22:24.748Z,71.33
2019-05-06T21:28:12.417Z,72.10
2019-05-06T21:34:26.655Z,72.10
2019-05-06T21:36:57.967Z,72.50
2019-05-06T21:39:27.992Z,72.83
2019-05-06T21:41:57.816Z,72.70
2019-05-06T21:48:09.618Z,72.76
2019-05-06T21:54:23.238Z,73.35
2019-05-06T21:56:53.536Z,73.46
2019-05-06T21:59:22.976Z,73.46
2019-05-06T22:01:52.555Z,74.04
2019-05-06T22:04:23.218Z,73.54
2019-05-06T22:06:52.635Z,73.97
2019-05-06T22:09:22.772Z,73.96
2019-05-06T22:11:57.185Z,73.93
2019-05-06T22:17:54.974Z,73.71
2019-05-06T22:23:56.385Z,74.04
2019-05-06T22:26:26.735Z,74.22
2019-05-06T22:28:56.438Z,74.39
2019-05-06T22:31:26.850Z,74.21
2019-05-06T22:34:00.053Z,74.01
2019-05-06T22:37:18.405Z,74.41
2019-05-06T22:43:16.206Z,74.79
2019-05-06T22:45:45.936Z,74.71
2019-05-06T22:48:15.768Z,74.35
2019-05-06T22:50:53.059Z,73.88
2019-05-06T22:56:54.551Z,74.22
2019-05-06T23:09:47.677Z,75.76
2019-05-06T23:12:17.395Z,75.52
2019-05-06T23:14:47.284Z,75.30
2019-05-06T23:19:57.309Z,75.42
2019-05-06T23:22:26.460Z,75.28
2019-05-06T23:25:01.941Z,76.83
2019-05-06T23:27:31.191Z,74.91
2019-05-06T23:30:03.038Z,75.10
2019-05-06T23:32:56.945Z,75.45
2019-05-06T23:39:59.689Z,75.80
2019-05-06T23:43:04.711Z,76.25
2019-05-06T23:46:12.149Z,77.00
2019-05-06T23:49:16.906Z,76.64
2019-05-06T23:52:22.732Z,76.16
2019-05-06T23:55:28.254Z,76.95
